PDT,Max TemperatureF,Mean TemperatureF,Min TemperatureF,Max Dew PointF,MeanDew PointF,Min DewpointF,Max Humidity, Mean Humidity, Min Humidity, Max Sea Level PressureIn, Mean Sea Level PressureIn, Min Sea Level PressureIn, Max VisibilityMiles, Mean VisibilityMiles, Min VisibilityMiles, Max Wind SpeedMPH, Mean Wind SpeedMPH, Max Gust SpeedMPH,PrecipitationIn, CloudCover, Events, WindDirDegrees
2013-9-1,86,70,54,57,53,50,93,63,32,29.93,29.88,29.81,10,10,10,20,8,24,0.00,1,,220
2013-9-2,80,71,62,59,55,52,78,59,39,29.95,29.91,29.88,10,10,10,16,7,24,0.00,7,,244
2013-9-3,81,70,59,56,52,49,78,56,33,30.02,29.98,29.95,10,10,10,17,5,22,0.00,6,,254
2013-9-4,76,69,61,56,54,51,78,61,43,30.06,30.03,30.00,10,10,10,12,5,15,0.00,6,,237
2013-9-5,69,63,57,59,56,52,90,76,61,30.11,30.05,30.01,10,9,6,16,3,21,0.25,7,Rain-Thunderstorm,232
2013-9-6,77,68,59,59,57,55,90,70,50,30.18,30.14,30.11,10,10,6,13,8,14,0.23,6,Rain,225
2013-9-7,77,65,53,59,56,53,100,77,54,30.10,30.04,29.96,10,6,0,14,5,18,0.00,4,Fog,12
2013-9-8,85,69,52,61,57,51,100,69,37,30.07,30.02,29.96,10,9,4,21,7,25,0.00,2,Fog,16
2013-9-9,87,71,54,61,58,52,93,65,37,30.03,29.96,29.88,10,10,10,21,8,24,0.00,0,Fog,20
2013-9-10,90,74,58,63,61,57,97,69,40,29.91,29.85,29.75,10,10,10,15,8,20,0.00,2,Fog,22
2013-9-11,89,74,59,61,58,56,97,67,36,29.99,29.89,29.80,10,10,10,18,8,24,0.00,0,,219
2013-9-12,84,72,59,62,58,55,90,69,47,30.01,29.97,29.91,10,10,10,12,4,,0.00,4,,210
2013-9-13,82,70,57,61,58,55,100,76,51,29.98,29.92,29.82,10,8,1,13,6,16,0.00,4,,262
2013-9-14,74,65,56,61,60,55,100,82,64,29.85,29.81,29.72,10,6,0,9,4,24,0.01,6,Rain,341
2013-9-15,71,65,59,57,56,54,93,77,61,29.94,29.83,29.77,10,10,6,16,8,21,0.00,8,,223
2013-9-16,74,66,57,56,54,49,86,64,41,30.00,29.96,29.90,10,10,10,13,5,16,0.00,7,,224
2013-9-17,69,63,56,55,54,50,93,75,56,30.06,29.93,29.87,10,9,2,20,8,22,0.58,7,Rain,309
2013-9-18,74,64,54,55,51,47,93,66,38,30.12,30.06,30.01,10,10,9,12,6,16,0.04,4,Rain,170
2013-9-19,81,62,43,53,48,43,100,68,35,30.00,29.91,29.80,10,8,1,12,1,14,0.00,2,Fog,239
2013-9-20,73,61,48,57,52,46,93,70,47,29.80,29.73,29.69,10,10,6,22,7,28,0.23,5,Rain,188
2013-9-21,67,61,55,56,54,51,100,84,67,29.84,29.74,29.70,10,9,1,14,5,16,0.43,7,Rain,209
2013-9-22,63,58,53,57,53,50,100,84,67,29.93,29.84,29.75,10,8,2,29,14,36,0.11,7,Rain,185
2013-9-23,63,59,54,55,54,52,100,86,72,30.03,30.00,29.93,10,10,3,20,8,22,0.06,7,Rain,177
2013-9-24,61,57,53,55,52,48,100,89,78,30.00,29.96,29.91,10,7,2,13,5,24,0.59,8,Rain,243
2013-9-25,62,55,48,50,47,44,93,74,55,30.07,29.97,29.91,10,10,8,14,6,17,0.12,7,Rain,233
2013-9-26,67,56,45,51,47,44,100,76,52,30.21,30.12,30.07,10,10,10,15,4,16,0.00,3,,211
2013-9-27,58,50,41,54,49,41,100,89,77,30.21,30.13,30.00,10,7,1,18,8,22,0.20,7,Rain,181
2013-9-28,68,63,57,58,54,50,86,75,63,29.99,29.79,29.60,10,8,2,29,17,37,0.11,8,Rain,194
2013-9-29,56,55,53,55,51,48,93,90,86,29.77,29.70,29.53,10,6,2,26,17,33,1.41,8,Rain,182
2013-9-30,61,56,51,54,49,47,96,84,72,30.05,29.95,29.75,10,8,2,22,12,28,0.78,7,Rain,203